Time,TemperatureF,DewpointF,PressureIn,WindDirection,WindDirectionDegrees,WindSpeedMPH,WindSpeedGustMPH,Humidity,HourlyPrecipIn,Conditions,Clouds,dailyrainin,SoftwareType,DateUTC
2013-06-15 00:00:00,61.6,58.0,29.92,ESE,112,4.0,9.0,88,0.00,,---,0.00,VWS V14.01,2013-06-15 07:00:00,
2013-06-15 00:30:00,62.1,57.9,29.92,ESE,112,5.0,9.0,86,0.00,,---,0.00,VWS V14.01,2013-06-15 07:30:00,
2013-06-15 01:00:00,62.1,57.9,29.93,ESE,112,5.0,10.0,86,0.00,,---,0.00,VWS V14.01,2013-06-15 08:00:00,
2013-06-15 01:30:00,62.2,57.6,29.93,ESE,112,5.0,11.0,85,0.00,,---,0.00,VWS V14.01,2013-06-15 08:30:00,
2013-06-15 02:00:00,62.2,57.6,29.92,ESE,112,5.0,9.0,85,0.00,,---,0.00,VWS V14.01,2013-06-15 09:00:00,
2013-06-15 02:30:00,62.2,57.6,29.92,ESE,112,5.0,9.0,85,0.00,,---,0.00,VWS V14.01,2013-06-15 09:30:00,
2013-06-15 03:00:00,62.1,57.9,29.92,ESE,112,4.0,9.0,86,0.00,,---,0.00,VWS V14.01,2013-06-15 10:00:00,
2013-06-15 03:30:00,62.2,58.0,29.92,ESE,112,3.0,7.0,86,0.00,,---,0.00,VWS V14.01,2013-06-15 10:30:00,
2013-06-15 04:00:00,62.1,57.5,29.93,SE,135,3.0,8.0,85,0.00,,---,0.00,VWS V14.01,2013-06-15 11:00:00,
2013-06-15 04:30:00,61.9,57.3,29.93,SSE,158,3.0,8.0,85,0.00,,---,0.00,VWS V14.01,2013-06-15 11:30:00,
2013-06-15 05:00:00,61.8,57.2,29.94,SE,135,1.0,5.0,85,0.00,,---,0.00,VWS V14.01,2013-06-15 12:00:00,
2013-06-15 05:30:00,61.8,57.2,29.95,SE,135,2.0,8.0,85,0.00,,---,0.00,VWS V14.01,2013-06-15 12:30:00,
2013-06-15 06:00:00,61.7,57.2,29.95,ESE,112,2.0,7.0,85,0.00,,---,0.00,VWS V14.01,2013-06-15 13:00:00,
2013-06-15 06:30:00,61.8,57.2,29.96,NNE,22,1.0,4.0,85,0.00,,---,0.00,VWS V14.01,2013-06-15 13:30:00,
2013-06-15 07:00:00,62.1,57.5,29.97,ENE,68,2.0,5.0,85,0.00,,---,0.00,VWS V14.01,2013-06-15 14:00:00,
2013-06-15 07:30:00,62.5,57.6,29.97,ENE,68,1.0,6.0,84,0.00,,---,0.00,VWS V14.01,2013-06-15 14:30:00,
2013-06-15 08:00:00,62.9,57.7,29.98,ENE,68,3.0,6.0,83,0.00,,---,0.00,VWS V14.01,2013-06-15 15:00:00,
2013-06-15 08:30:00,62.5,57.6,29.97,ENE,68,1.0,6.0,84,0.00,,---,0.00,VWS V14.01,2013-06-15 15:30:00,
2013-06-15 08:58:00,63.7,58.1,29.99,East,84,0.0,5.0,82,0.00,,---,0.00,VWS V14.01,2013-06-15 15:58:00,
2013-06-15 09:00:00,63.7,58.1,29.99,East,84,0.0,5.0,82,0.00,,---,0.00,VWS V14.01,2013-06-15 16:00:00,
2013-06-15 09:28:00,64.1,58.2,29.99,SE,128,0.0,5.0,81,0.00,,---,0.00,VWS V14.01,2013-06-15 16:28:00,
2013-06-15 09:30:00,64.1,58.2,29.99,SE,128,0.0,5.0,81,0.00,,---,0.00,VWS V14.01,2013-06-15 16:30:00,
2013-06-15 09:58:00,66.6,59.2,29.99,SE,129,2.0,7.0,77,0.00,,---,0.00,VWS V14.01,2013-06-15 16:58:00,
2013-06-15 10:00:00,66.6,59.2,29.99,SE,129,2.0,7.0,77,0.00,,---,0.00,VWS V14.01,2013-06-15 17:00:00,
2013-06-15 10:28:00,68.3,58.9,29.99,SSW,212,4.0,7.0,72,0.00,,---,0.00,VWS V14.01,2013-06-15 17:28:00,
2013-06-15 10:30:00,68.3,58.9,29.99,SSW,212,4.0,7.0,72,0.00,,---,0.00,VWS V14.01,2013-06-15 17:30:00,
2013-06-15 10:58:00,67.3,58.7,30.00,SSW,195,10.0,11.0,74,0.00,,---,0.00,VWS V14.01,2013-06-15 17:58:00,
2013-06-15 11:00:00,67.3,58.7,30.00,SSW,195,10.0,11.0,74,0.00,,---,0.00,VWS V14.01,2013-06-15 18:00:00,
2013-06-15 11:28:00,68.5,58.7,29.99,SSE,166,2.0,12.0,71,0.00,,---,0.00,VWS V14.01,2013-06-15 18:28:00,
2013-06-15 11:30:00,68.5,58.7,29.99,SSE,166,2.0,12.0,71,0.00,,---,0.00,VWS V14.01,2013-06-15 18:30:00,
2013-06-15 11:58:00,69.5,58.9,29.99,WSW,239,6.0,12.0,69,0.00,,---,0.00,VWS V14.01,2013-06-15 18:58:00,
2013-06-15 12:00:00,69.5,58.9,29.99,WSW,239,6.0,12.0,69,0.00,,---,0.00,VWS V14.01,2013-06-15 19:00:00,
2013-06-15 12:28:00,70.1,58.7,29.99,South,185,8.0,12.0,67,0.00,,---,0.00,VWS V14.01,2013-06-15 19:28:00,
2013-06-15 12:30:00,70.1,58.7,29.99,South,185,8.0,12.0,67,0.00,,---,0.00,VWS V14.01,2013-06-15 19:30:00,
2013-06-15 12:58:00,70.6,58.3,29.98,South,171,7.0,14.0,65,0.00,,---,0.00,VWS V14.01,2013-06-15 19:58:00,
2013-06-15 13:00:00,70.6,58.3,29.98,South,171,7.0,14.0,65,0.00,,---,0.00,VWS V14.01,2013-06-15 20:00:00,
2013-06-15 13:28:00,71.1,58.8,29.98,SSW,213,1.0,14.0,65,0.00,,---,0.00,VWS V14.01,2013-06-15 20:28:00,
2013-06-15 13:30:00,71.1,58.8,29.98,SSW,213,1.0,14.0,65,0.00,,---,0.00,VWS V14.01,2013-06-15 20:30:00,
2013-06-15 14:00:00,71.9,59.1,29.98,South,180,7.0,13.0,64,0.00,,---,0.00,VWS V14.01,2013-06-15 21:00:00,
2013-06-15 14:30:00,71.8,58.5,29.97,SSW,202,8.0,16.0,63,0.00,,---,0.00,VWS V14.01,2013-06-15 21:30:00,
2013-06-15 15:00:00,71.0,58.2,29.97,South,180,9.0,16.0,64,0.00,,---,0.00,VWS V14.01,2013-06-15 22:00:00,
2013-06-15 15:30:00,71.6,60.1,29.97,SSW,202,8.0,16.0,67,0.00,,---,0.00,VWS V14.01,2013-06-15 22:30:00,
2013-06-15 16:00:00,71.2,60.5,29.96,SSW,202,8.0,16.0,69,0.00,,---,0.00,VWS V14.01,2013-06-15 23:00:00,
2013-06-15 16:30:00,71.4,59.5,29.95,South,180,7.0,14.0,66,0.00,,---,0.00,VWS V14.01,2013-06-15 23:30:00,
2013-06-15 17:00:00,71.5,59.1,29.94,South,180,7.0,13.0,65,0.00,,---,0.00,VWS V14.01,2013-06-16 00:00:00,
2013-06-15 17:30:00,72.3,59.5,29.94,South,180,7.0,12.0,64,0.00,,---,0.00,VWS V14.01,2013-06-16 00:30:00,
2013-06-15 18:00:00,72.0,59.6,29.93,South,180,7.0,13.0,65,0.00,,---,0.00,VWS V14.01,2013-06-16 01:00:00,
2013-06-15 18:30:00,71.4,60.3,29.94,South,180,6.0,13.0,68,0.00,,---,0.00,VWS V14.01,2013-06-16 01:30:00,
2013-06-15 19:00:00,71.2,59.3,29.94,WSW,248,6.0,12.0,66,0.00,,---,0.00,VWS V14.01,2013-06-16 02:00:00,
2013-06-15 19:30:00,69.8,58.8,29.95,West,270,6.0,11.0,68,0.00,,---,0.00,VWS V14.01,2013-06-16 02:30:00,
2013-06-15 20:00:00,67.7,58.7,29.96,WNW,292,5.0,10.0,73,0.00,,---,0.00,VWS V14.01,2013-06-16 03:00:00,
2013-06-15 20:30:00,65.9,58.1,29.96,WNW,292,5.0,11.0,76,0.00,,---,0.00,VWS V14.01,2013-06-16 03:30:00,
2013-06-15 21:00:00,64.8,58.1,29.96,West,270,5.0,10.0,79,0.00,,---,0.00,VWS V14.01,2013-06-16 04:00:00,
2013-06-15 21:30:00,64.2,58.3,29.97,SW,225,3.0,9.0,81,0.00,,---,0.00,VWS V14.01,2013-06-16 04:30:00,
2013-06-15 22:00:00,63.5,58.6,29.99,WSW,248,2.0,7.0,84,0.00,,---,0.00,VWS V14.01,2013-06-16 05:00:00,
2013-06-15 22:30:00,62.6,57.7,30.00,SW,225,1.0,3.0,84,0.00,,---,0.00,VWS V14.01,2013-06-16 05:30:00,
2013-06-15 23:00:00,61.5,57.3,30.00,SW,225,0.0,3.0,86,0.00,,---,0.00,VWS V14.01,2013-06-16 06:00:00,
2013-06-15 23:30:00,61.2,58.2,30.00,SW,225,1.0,6.0,90,0.00,,---,0.00,VWS V14.01,2013-06-16 06:30:00,